TPOK1: Kansas River, State-Line, KS

                                SHEF ID:       TPOK1     MARAIS DES CYGNES R NR KS-MO ST
STATION TYPE:

STAGE STAGE(2) RIV-FLOW BAT-LOAD
ft ft cfs volt
Ccp-Rev Ccp-Rev Ccp-Rev Ccp-Rev
(America/Chicago)
07/01 00:00 7.78 7.71 1995 12.50
07/01 01:00 7.72 7.69 1960 12.50
07/01 02:00 7.71 7.66 1954 12.48
07/01 03:00 7.69 7.69 1942 12.47
07/01 04:00 7.66 7.64 1925 12.44
07/01 05:00 7.64 7.63 1913 12.43
07/01 06:00 7.62 7.58 1902 12.40
07/01 07:00 7.59 7.58 1884 12.41
07/01 08:00 7.58 7.53 1878 12.44
07/01 09:00 7.56 7.52 1867 12.81
07/01 10:00 7.52 7.54 1844 13.26
07/01 11:00 7.51 7.49 1838 12.91
07/01 12:00 7.49 7.48 1827 13.30
07/01 13:00 7.48 7.44 1821 13.22
07/01 14:00 7.46 7.43 1809 13.16
07/01 15:00 7.44 7.40 1798 13.09
07/01 16:00 7.41 7.40 1781 12.98
07/01 17:00 7.39 7.36 1770 12.88
07/01 18:00 7.40 7.34 1775 12.86
07/01 19:00 7.36 7.35 1753 12.70
07/01 20:00 7.36 7.34 1753 12.63
07/01 21:00 7.34 7.29 1741 12.59
07/01 22:00 7.33 7.31 1736 12.57
07/01 23:00 7.31 7.27 1725 12.53
Data processed at Thu 02Jul2026 04:52 GMT

NOTICE: If you are parsing this page

Please convert to using our Data API. Starting early 2026 we will be migrating to: https://water.usace.army.mil with modern pages rendered in JavaScript. When this migration completes you will no longer be able to scrape this page! CWMSDataAPI (CDA)

Timeseries IDs (TSIDs)

TSIDs used from left to right in the data table
MKSL.Stage.Inst.1Hour.0.Ccp-Rev
MKSL.Stage-Alt.Inst.1Hour.0.Ccp-Rev
MKSL.Flow.Inst.1Hour.0.Ccp-Rev
MKSL.Volt-Battery Load.Inst.1Hour.0.Ccp-Rev

                            

All information presented herein is the property of the government of the United States of America and may be revised or deleted at any time without prior notice. Dissemination of this information without the expressed written consent of the Public Affairs Office, Tulsa District U.S. Army Corps of Engineers is strictly prohibited. These data are gathered electronically and, as presented, have NOT undergone any form of quality control. These data are NOT guaranteed to be valid or correct.